Overseas Mindoro — V7RE6 — position and weather

sailwx.info

Track history (hours):
 
Tides and Currents Weather Stations Pressure Air Temp Water Temp Dewpoint Dewpoint Depression Visibility Wind Speed Wind Dir Waves Ship Positions

Overseas Mindoro

Last reported at 2014-Aug-23 03:23 UTC. Time now 2014-Aug-23 15:27 UTC.
Position N 33°43' W 118°14'.

Length 238 m; draft 8.2 m.

Type: Tanker. MMSI: 538003473.

Date/timePositionNaut miles runAvg speedWind from/ knotsBaromVisibWave heightAir tempDewpointWater temp
2014-Aug-23 03:23N 33°43' W 118°14'0 0.0
2014-Aug-23 02:32N 33°43' W 118°14'0 0.0
2014-Aug-23 01:32N 33°43' W 118°14'0 0.0
2014-Aug-23 00:29N 33°43' W 118°14'0 0.0
2014-Aug-22 23:29N 33°43' W 118°14'0 0.0
2014-Aug-22 22:32N 33°43' W 118°14'0 0.0
2014-Aug-22 21:32N 33°43' W 118°14'0 0.0
2014-Aug-22 20:32N 33°43' W 118°14'0 0.0
2014-Aug-22 19:17N 33°43' W 118°14'0 0.0
2014-Aug-22 09:32N 33°43' W 118°13'0 0.0
2014-Aug-22 08:32N 33°43' W 118°13'0 0.1
2014-Aug-22 07:32N 33°43' W 118°14'0 0.0
2014-Aug-22 03:26N 33°43' W 118°13'50 6.3
2014-Aug-21 19:29N 33°60' W 119°10'1313.6
2014-Aug-21 18:34N 34°04' W 119°24'1413.9
2014-Aug-21 17:32N 34°08' W 119°41'1413.8
2014-Aug-21 16:33N 34°12' W 119°57'1413.7
2014-Aug-21 15:34N 34°15' W 120°13'5513.2
2014-Aug-21 11:25N 34°34' W 121°15'1112.7
2014-Aug-21 10:33N 34°39' W 121°27'1212.1
2014-Aug-21 09:33N 34°45' W 121°40'1313.5
2014-Aug-21 08:33N 34°51' W 121°54'1413.7
2014-Aug-21 07:33N 34°57' W 122°09'1413.6
2014-Aug-21 06:33N 35°03' W 122°24'1313.4
2014-Aug-21 05:33N 35°09' W 122°39'1413.5
2014-Aug-21 04:31N 35°16' W 122°54'1313.6
2014-Aug-21 03:33N 35°22' W 123°08'1313.4
2014-Aug-21 02:33N 35°28' W 123°23'1313.4
2014-Aug-21 01:33N 35°34' W 123°37'1413.6
2014-Aug-21 00:33N 35°40' W 123°52'1413.5
2014-Aug-20 23:30N 35°46' W 124°08'1213.0
2014-Aug-20 22:33N 35°58' W 124°14'6214.1
2014-Aug-20 18:11N 36°57' W 124°34'16 9.8
2014-Aug-20 16:31N 37°11' W 124°24'1313.6
2014-Aug-20 15:33N 37°16' W 124°09'3812.5
2014-Aug-20 12:33N 37°28' W 123°24'1211.8
2014-Aug-20 11:33N 37°32' W 123°10'1614.2
2014-Aug-20 10:26N 37°40' W 122°53'1213.2
2014-Aug-20 09:33N 37°46' W 122°40'1313.1
2014-Aug-20 08:33N 37°50' W 122°24'6 5.4
2014-Aug-20 07:28N 37°45' W 122°21'0 0.0
2014-Aug-20 06:28N 37°45' W 122°21'0 0.1
2014-Aug-20 05:31N 37°45' W 122°21'0 0.1
2014-Aug-20 04:31N 37°45' W 122°20'0 0.1
2014-Aug-20 03:31N 37°45' W 122°20'4 3.9
2014-Aug-20 02:33N 37°48' W 122°23'1110.4
2014-Aug-20 01:33N 37°58' W 122°26'10 9.2
2014-Aug-20 00:28N 38°04' W 122°16'  
2014-Aug-16 12:33N 38°02' W 122°09'9 8.7
2014-Aug-16 11:34N 38°03' W 122°20'1010.0
2014-Aug-16 10:34N 37°55' W 122°27'9 9.1
2014-Aug-16 09:34N 37°46' W 122°22'3 2.9
2014-Aug-16 08:33N 37°44' W 122°20'0 0.0
2014-Aug-16 07:33N 37°44' W 122°20'0 0.2
2014-Aug-16 06:33N 37°44' W 122°20'0 0.1
2014-Aug-16 05:33N 37°44' W 122°20'0 0.0
2014-Aug-16 04:33N 37°44' W 122°20'0 0.0
2014-Aug-16 03:33N 37°44' W 122°20'0 0.0
2014-Aug-16 02:33N 37°44' W 122°20'0 0.0
2014-Aug-16 01:33N 37°44' W 122°20'0 0.1
2014-Aug-16 00:33N 37°44' W 122°20'0 0.1
2014-Aug-15 23:33N 37°44' W 122°20'0 0.1
2014-Aug-15 22:33N 37°44' W 122°20'0 0.0
2014-Aug-15 21:33N 37°44' W 122°20'0 0.0
2014-Aug-15 20:33N 37°44' W 122°20'0 0.0
2014-Aug-15 19:33N 37°44' W 122°20'0 0.0
2014-Aug-15 18:33N 37°44' W 122°20'0 0.2
2014-Aug-15 17:33N 37°44' W 122°20'0 0.0
2014-Aug-15 16:33N 37°44' W 122°20'0 0.0
2014-Aug-15 15:33N 37°44' W 122°20'0 0.0
2014-Aug-15 14:33N 37°44' W 122°20'0 0.0
2014-Aug-15 13:33N 37°44' W 122°20'0 0.0
2014-Aug-15 12:33N 37°44' W 122°20'0 0.2
2014-Aug-15 11:27N 37°44' W 122°20'0 0.0
2014-Aug-15 10:33N 37°44' W 122°20'0 0.0
2014-Aug-15 09:33N 37°44' W 122°20'0 0.0
2014-Aug-15 08:33N 37°44' W 122°20'0 0.0
2014-Aug-15 07:33N 37°44' W 122°20'0 0.0
2014-Aug-15 06:33N 37°44' W 122°20'0 0.2
2014-Aug-15 05:33N 37°44' W 122°20'0 0.0
2014-Aug-15 04:33N 37°44' W 122°20'0 0.0
2014-Aug-15 03:33N 37°44' W 122°20'0 0.0
2014-Aug-15 02:33N 37°44' W 122°20'0 0.0
2014-Aug-15 01:33N 37°44' W 122°20'0 0.1
2014-Aug-15 00:33N 37°44' W 122°20'0 0.1
2014-Aug-14 23:33N 37°44' W 122°20'0 0.0
2014-Aug-14 22:30N 37°44' W 122°20'0 0.1
2014-Aug-14 21:33N 37°44' W 122°20'0 0.0
2014-Aug-14 20:33N 37°44' W 122°20'0 0.0
2014-Aug-14 19:33N 37°44' W 122°20'0 0.0
2014-Aug-14 18:33N 37°44' W 122°20'0 0.1
2014-Aug-14 17:33N 37°44' W 122°20'0 0.2
2014-Aug-14 16:33N 37°44' W 122°20'0 0.0
2014-Aug-14 15:33N 37°44' W 122°20'0 0.0
2014-Aug-14 14:33N 37°44' W 122°20'0 0.0
2014-Aug-14 13:33N 37°44' W 122°20'0 0.0
2014-Aug-14 12:33N 37°44' W 122°20'0 0.0
2014-Aug-14 11:33N 37°44' W 122°20'0 0.2
2014-Aug-14 10:33N 37°44' W 122°20'0 0.1
2014-Aug-14 09:33N 37°44' W 122°20'0 0.0
2014-Aug-14 08:33N 37°44' W 122°20'0 0.0
2014-Aug-14 07:33N 37°44' W 122°20'0 0.0
2014-Aug-14 06:33N 37°44' W 122°20'0 0.1
2014-Aug-14 05:33N 37°44' W 122°20'0 0.2
2014-Aug-14 04:33N 37°44' W 122°20'0 0.0
2014-Aug-14 03:33N 37°44' W 122°20'0 0.0
2014-Aug-14 02:33N 37°44' W 122°20'0 0.0
2014-Aug-14 01:33N 37°44' W 122°20'0 0.0
2014-Aug-14 00:27N 37°44' W 122°20'0 0.2
2014-Aug-13 23:33N 37°44' W 122°20'0 0.1
2014-Aug-13 22:33N 37°44' W 122°20'0 0.1
2014-Aug-13 21:33N 37°44' W 122°20'0 0.0
2014-Aug-13 20:33N 37°44' W 122°20'0 0.0
2014-Aug-13 19:33N 37°44' W 122°20'0 0.0
2014-Aug-13 18:33N 37°44' W 122°20'0 0.0
2014-Aug-13 17:33N 37°44' W 122°20'0 0.1
2014-Aug-13 16:33N 37°44' W 122°20'0 0.2
2014-Aug-13 15:33N 37°44' W 122°20'0 0.0
2014-Aug-13 14:33N 37°44' W 122°20'0 0.0
2014-Aug-13 13:33N 37°44' W 122°20'0 0.0
2014-Aug-13 12:33N 37°44' W 122°20'0 0.0
2014-Aug-13 11:33N 37°44' W 122°20'0 0.0
2014-Aug-13 10:33N 37°44' W 122°20'0 0.2
2014-Aug-13 09:33N 37°44' W 122°20'0 0.0
2014-Aug-13 08:33N 37°44' W 122°20'0 0.0
2014-Aug-13 07:33N 37°44' W 122°20'0 0.0
2014-Aug-13 06:33N 37°44' W 122°20'0 0.0
2014-Aug-13 05:33N 37°44' W 122°20'0 0.0
2014-Aug-13 04:33N 37°44' W 122°20'0 0.2
2014-Aug-13 03:33N 37°44' W 122°20'  
Track history (hours):
 
Tides and Currents Weather Stations Pressure Air Temp Water Temp Dewpoint Dewpoint Depression Visibility Wind Speed Wind Dir Waves Ship Positions

Overseas Mindoro

Last reported at 2014-Aug-23 03:23 UTC. Time now 2014-Aug-23 15:27 UTC.
Position N 33°43' W 118°14'.

Length 238 m; draft 8.2 m.

Type: Tanker. MMSI: 538003473.

Date/timePositionNaut miles runAvg speedWind from/ knotsBaromVisibWave heightAir tempDewpointWater temp
2014-Aug-23 03:23N 33°43' W 118°14'0 0.0
2014-Aug-23 02:32N 33°43' W 118°14'0 0.0
2014-Aug-23 01:32N 33°43' W 118°14'0 0.0
2014-Aug-23 00:29N 33°43' W 118°14'0 0.0
2014-Aug-22 23:29N 33°43' W 118°14'0 0.0
2014-Aug-22 22:32N 33°43' W 118°14'0 0.0
2014-Aug-22 21:32N 33°43' W 118°14'0 0.0
2014-Aug-22 20:32N 33°43' W 118°14'0 0.0
2014-Aug-22 19:17N 33°43' W 118°14'0 0.0
2014-Aug-22 09:32N 33°43' W 118°13'0 0.0
2014-Aug-22 08:32N 33°43' W 118°13'0 0.1
2014-Aug-22 07:32N 33°43' W 118°14'0 0.0
2014-Aug-22 03:26N 33°43' W 118°13'50 6.3
2014-Aug-21 19:29N 33°60' W 119°10'1313.6
2014-Aug-21 18:34N 34°04' W 119°24'1413.9
2014-Aug-21 17:32N 34°08' W 119°41'1413.8
2014-Aug-21 16:33N 34°12' W 119°57'1413.7
2014-Aug-21 15:34N 34°15' W 120°13'5513.2
2014-Aug-21 11:25N 34°34' W 121°15'1112.7
2014-Aug-21 10:33N 34°39' W 121°27'1212.1
2014-Aug-21 09:33N 34°45' W 121°40'1313.5
2014-Aug-21 08:33N 34°51' W 121°54'1413.7
2014-Aug-21 07:33N 34°57' W 122°09'1413.6
2014-Aug-21 06:33N 35°03' W 122°24'1313.4
2014-Aug-21 05:33N 35°09' W 122°39'1413.5
2014-Aug-21 04:31N 35°16' W 122°54'1313.6
2014-Aug-21 03:33N 35°22' W 123°08'1313.4
2014-Aug-21 02:33N 35°28' W 123°23'1313.4
2014-Aug-21 01:33N 35°34' W 123°37'1413.6
2014-Aug-21 00:33N 35°40' W 123°52'1413.5
2014-Aug-20 23:30N 35°46' W 124°08'1213.0
2014-Aug-20 22:33N 35°58' W 124°14'6214.1
2014-Aug-20 18:11N 36°57' W 124°34'16 9.8
2014-Aug-20 16:31N 37°11' W 124°24'1313.6
2014-Aug-20 15:33N 37°16' W 124°09'3812.5
2014-Aug-20 12:33N 37°28' W 123°24'1211.8
2014-Aug-20 11:33N 37°32' W 123°10'1614.2
2014-Aug-20 10:26N 37°40' W 122°53'1213.2
2014-Aug-20 09:33N 37°46' W 122°40'1313.1
2014-Aug-20 08:33N 37°50' W 122°24'6 5.4
2014-Aug-20 07:28N 37°45' W 122°21'0 0.0
2014-Aug-20 06:28N 37°45' W 122°21'0 0.1
2014-Aug-20 05:31N 37°45' W 122°21'0 0.1
2014-Aug-20 04:31N 37°45' W 122°20'0 0.1
2014-Aug-20 03:31N 37°45' W 122°20'4 3.9
2014-Aug-20 02:33N 37°48' W 122°23'1110.4
2014-Aug-20 01:33N 37°58' W 122°26'10 9.2
2014-Aug-20 00:28N 38°04' W 122°16'  
2014-Aug-16 12:33N 38°02' W 122°09'9 8.7
2014-Aug-16 11:34N 38°03' W 122°20'1010.0
2014-Aug-16 10:34N 37°55' W 122°27'9 9.1
2014-Aug-16 09:34N 37°46' W 122°22'3 2.9
2014-Aug-16 08:33N 37°44' W 122°20'0 0.0
2014-Aug-16 07:33N 37°44' W 122°20'0 0.2
2014-Aug-16 06:33N 37°44' W 122°20'0 0.1
2014-Aug-16 05:33N 37°44' W 122°20'0 0.0
2014-Aug-16 04:33N 37°44' W 122°20'0 0.0
2014-Aug-16 03:33N 37°44' W 122°20'0 0.0
2014-Aug-16 02:33N 37°44' W 122°20'0 0.0
2014-Aug-16 01:33N 37°44' W 122°20'0 0.1
2014-Aug-16 00:33N 37°44' W 122°20'0 0.1
2014-Aug-15 23:33N 37°44' W 122°20'0 0.1
2014-Aug-15 22:33N 37°44' W 122°20'0 0.0
2014-Aug-15 21:33N 37°44' W 122°20'0 0.0
2014-Aug-15 20:33N 37°44' W 122°20'0 0.0
2014-Aug-15 19:33N 37°44' W 122°20'0 0.0
2014-Aug-15 18:33N 37°44' W 122°20'0 0.2
2014-Aug-15 17:33N 37°44' W 122°20'0 0.0
2014-Aug-15 16:33N 37°44' W 122°20'0 0.0
2014-Aug-15 15:33N 37°44' W 122°20'0 0.0
2014-Aug-15 14:33N 37°44' W 122°20'0 0.0
2014-Aug-15 13:33N 37°44' W 122°20'0 0.0
2014-Aug-15 12:33N 37°44' W 122°20'0 0.2
2014-Aug-15 11:27N 37°44' W 122°20'0 0.0
2014-Aug-15 10:33N 37°44' W 122°20'0 0.0
2014-Aug-15 09:33N 37°44' W 122°20'0 0.0
2014-Aug-15 08:33N 37°44' W 122°20'0 0.0
2014-Aug-15 07:33N 37°44' W 122°20'0 0.0
2014-Aug-15 06:33N 37°44' W 122°20'0 0.2
2014-Aug-15 05:33N 37°44' W 122°20'0 0.0
2014-Aug-15 04:33N 37°44' W 122°20'0 0.0
2014-Aug-15 03:33N 37°44' W 122°20'0 0.0
2014-Aug-15 02:33N 37°44' W 122°20'0 0.0
2014-Aug-15 01:33N 37°44' W 122°20'0 0.1
2014-Aug-15 00:33N 37°44' W 122°20'0 0.1
2014-Aug-14 23:33N 37°44' W 122°20'0 0.0
2014-Aug-14 22:30N 37°44' W 122°20'0 0.1
2014-Aug-14 21:33N 37°44' W 122°20'0 0.0
2014-Aug-14 20:33N 37°44' W 122°20'0 0.0
2014-Aug-14 19:33N 37°44' W 122°20'0 0.0
2014-Aug-14 18:33N 37°44' W 122°20'0 0.1
2014-Aug-14 17:33N 37°44' W 122°20'0 0.2
2014-Aug-14 16:33N 37°44' W 122°20'0 0.0
2014-Aug-14 15:33N 37°44' W 122°20'0 0.0
2014-Aug-14 14:33N 37°44' W 122°20'0 0.0
2014-Aug-14 13:33N 37°44' W 122°20'0 0.0
2014-Aug-14 12:33N 37°44' W 122°20'0 0.0
2014-Aug-14 11:33N 37°44' W 122°20'0 0.2
2014-Aug-14 10:33N 37°44' W 122°20'0 0.1
2014-Aug-14 09:33N 37°44' W 122°20'0 0.0
2014-Aug-14 08:33N 37°44' W 122°20'0 0.0
2014-Aug-14 07:33N 37°44' W 122°20'0 0.0
2014-Aug-14 06:33N 37°44' W 122°20'0 0.1
2014-Aug-14 05:33N 37°44' W 122°20'0 0.2
2014-Aug-14 04:33N 37°44' W 122°20'0 0.0
2014-Aug-14 03:33N 37°44' W 122°20'0 0.0
2014-Aug-14 02:33N 37°44' W 122°20'0 0.0
2014-Aug-14 01:33N 37°44' W 122°20'0 0.0
2014-Aug-14 00:27N 37°44' W 122°20'0 0.2
2014-Aug-13 23:33N 37°44' W 122°20'0 0.1
2014-Aug-13 22:33N 37°44' W 122°20'0 0.1
2014-Aug-13 21:33N 37°44' W 122°20'0 0.0
2014-Aug-13 20:33N 37°44' W 122°20'0 0.0
2014-Aug-13 19:33N 37°44' W 122°20'0 0.0
2014-Aug-13 18:33N 37°44' W 122°20'0 0.0
2014-Aug-13 17:33N 37°44' W 122°20'0 0.1
2014-Aug-13 16:33N 37°44' W 122°20'0 0.2
2014-Aug-13 15:33N 37°44' W 122°20'0 0.0
2014-Aug-13 14:33N 37°44' W 122°20'0 0.0
2014-Aug-13 13:33N 37°44' W 122°20'0 0.0
2014-Aug-13 12:33N 37°44' W 122°20'0 0.0
2014-Aug-13 11:33N 37°44' W 122°20'0 0.0
2014-Aug-13 10:33N 37°44' W 122°20'0 0.2
2014-Aug-13 09:33N 37°44' W 122°20'0 0.0
2014-Aug-13 08:33N 37°44' W 122°20'0 0.0
2014-Aug-13 07:33N 37°44' W 122°20'0 0.0
2014-Aug-13 06:33N 37°44' W 122°20'0 0.0
2014-Aug-13 05:33N 37°44' W 122°20'0 0.0
2014-Aug-13 04:33N 37°44' W 122°20'0 0.2
2014-Aug-13 03:33N 37°44' W 122°20'  

Dump ship's entire track history